createdAt,value
2019-05-30T00:01:13.391Z,14.40
2019-05-30T00:03:42.216Z,14.40
2019-05-30T00:06:11.770Z,14.50
2019-05-30T00:08:40.579Z,14.50
2019-05-30T00:11:09.494Z,14.50
2019-05-30T00:13:38.321Z,14.60
2019-05-30T00:16:07.228Z,14.60
2019-05-30T00:18:36.372Z,14.60
2019-05-30T00:21:05.277Z,14.70
2019-05-30T00:23:34.434Z,14.70
2019-05-30T00:26:03.445Z,14.70
2019-05-30T00:28:32.327Z,14.80
2019-05-30T00:31:20.336Z,14.80
2019-05-30T00:33:49.195Z,14.80
2019-05-30T00:36:37.236Z,14.70
2019-05-30T00:39:06.936Z,14.70
2019-05-30T00:41:35.803Z,14.80
2019-05-30T00:44:06.166Z,14.80
2019-05-30T00:46:35.215Z,14.80
2019-05-30T00:49:04.560Z,14.80
2019-05-30T00:51:33.847Z,14.70
2019-05-30T00:54:02.916Z,14.70
2019-05-30T00:56:31.937Z,14.60
2019-05-30T00:59:19.960Z,14.60
2019-05-30T01:01:48.783Z,14.60
2019-05-30T01:04:17.676Z,14.50
2019-05-30T01:06:46.481Z,14.40
2019-05-30T01:09:15.437Z,14.40
2019-05-30T01:11:44.246Z,14.40
2019-05-30T01:14:13.299Z,14.30
2019-05-30T01:16:42.796Z,14.30
2019-05-30T01:19:11.819Z,14.20
2019-05-30T01:21:40.694Z,14.20
2019-05-30T01:24:09.683Z,14.30
2019-05-30T01:26:38.579Z,14.30
2019-05-30T01:29:07.839Z,14.30
2019-05-30T01:31:36.759Z,14.30
2019-05-30T01:34:06.130Z,14.40
2019-05-30T01:36:34.956Z,14.40
2019-05-30T01:39:05.901Z,14.50
2019-05-30T01:41:34.733Z,14.60
2019-05-30T01:44:04.115Z,14.60
2019-05-30T01:46:32.996Z,14.60
2019-05-30T01:49:02.323Z,14.60
2019-05-30T01:51:31.329Z,14.50
2019-05-30T01:54:00.509Z,14.60
2019-05-30T01:56:29.579Z,14.60
2019-05-30T01:58:58.675Z,14.60
2019-05-30T02:01:27.615Z,14.50
2019-05-30T02:03:56.422Z,14.60
2019-05-30T02:06:25.238Z,14.60
2019-05-30T02:08:54.147Z,14.70
2019-05-30T02:11:23.799Z,14.70
2019-05-30T02:13:52.697Z,14.60
2019-05-30T02:16:21.568Z,14.70
2019-05-30T02:18:50.372Z,14.70
2019-05-30T02:21:19.199Z,14.80
2019-05-30T02:23:48.014Z,14.70
2019-05-30T02:26:17.194Z,14.80
2019-05-30T02:28:46.032Z,14.80
2019-05-30T02:31:15.189Z,14.70
2019-05-30T02:33:44.007Z,14.70
2019-05-30T02:36:13.038Z,14.70
2019-05-30T02:38:42.169Z,14.70
2019-05-30T02:41:12.478Z,14.70
2019-05-30T02:43:41.850Z,14.70
2019-05-30T02:46:12.575Z,14.70
2019-05-30T02:48:58.144Z,14.70
2019-05-30T02:51:12.825Z,14.70
2019-05-30T02:53:41.875Z,14.70
2019-05-30T02:56:12.691Z,14.70
2019-05-30T02:58:41.793Z,14.70
2019-05-30T03:01:11.960Z,14.80
2019-05-30T03:03:41.535Z,14.80
2019-05-30T03:06:13.095Z,14.80
2019-05-30T03:08:41.245Z,14.80
2019-05-30T03:11:13.565Z,14.80
2019-05-30T03:13:41.120Z,14.80
2019-05-30T03:16:11.849Z,14.80
2019-05-30T03:18:40.757Z,14.80
2019-05-30T03:21:13.003Z,14.80
2019-05-30T03:23:41.155Z,14.80
2019-05-30T03:26:12.932Z,14.80
2019-05-30T03:28:40.808Z,14.80
2019-05-30T03:31:25.843Z,14.80
2019-05-30T03:33:42.777Z,14.70
2019-05-30T03:36:23.878Z,14.80
2019-05-30T03:38:43.450Z,14.80
2019-05-30T03:41:12.476Z,14.80
2019-05-30T03:43:41.677Z,14.80
2019-05-30T03:46:15.169Z,14.90
2019-05-30T03:48:46.921Z,14.90
2019-05-30T03:51:17.980Z,14.90
2019-05-30T03:53:47.214Z,14.90
2019-05-30T03:56:19.623Z,14.90
2019-05-30T03:59:05.770Z,14.90
2019-05-30T04:01:43.053Z,14.90
2019-05-30T04:04:17.017Z,14.90
2019-05-30T04:06:50.114Z,14.90
2019-05-30T04:09:24.681Z,14.80
2019-05-30T04:12:03.999Z,14.60
2019-05-30T04:14:36.249Z,14.60
2019-05-30T04:17:05.185Z,14.40
2019-05-30T04:19:34.035Z,14.40
2019-05-30T04:22:02.858Z,14.40
2019-05-30T04:24:31.734Z,14.50
2019-05-30T04:27:00.536Z,14.60
2019-05-30T04:29:29.403Z,14.50
2019-05-30T04:31:58.814Z,14.50
2019-05-30T04:34:27.642Z,14.50
2019-05-30T04:36:56.600Z,14.60
2019-05-30T04:42:00.943Z,14.70
2019-05-30T04:44:30.112Z,14.70
2019-05-30T04:46:58.965Z,14.80
2019-05-30T04:49:27.756Z,14.90
2019-05-30T04:51:56.588Z,14.90
2019-05-30T04:54:25.856Z,15.00
2019-05-30T04:59:29.911Z,15.00
2019-05-30T05:01:58.736Z,15.10
2019-05-30T05:04:27.526Z,15.10
2019-05-30T05:06:56.323Z,15.10
2019-05-30T05:09:25.118Z,15.10
2019-05-30T05:11:53.956Z,15.20
2019-05-30T05:14:22.895Z,15.20
2019-05-30T05:16:51.871Z,15.30
2019-05-30T05:19:25.429Z,15.30
2019-05-30T05:21:52.660Z,15.40
2019-05-30T05:24:22.004Z,15.40
2019-05-30T05:26:50.811Z,15.40
2019-05-30T05:29:19.943Z,15.40
2019-05-30T05:31:49.060Z,15.40
2019-05-30T05:34:18.536Z,15.50
2019-05-30T05:36:47.434Z,15.60
2019-05-30T05:39:16.475Z,15.60
2019-05-30T05:41:45.320Z,15.70
2019-05-30T05:44:16.136Z,15.60
2019-05-30T05:46:45.094Z,15.60
2019-05-30T05:49:14.016Z,15.70
2019-05-30T05:51:42.823Z,15.70
2019-05-30T05:54:12.070Z,15.70
2019-05-30T05:56:41.239Z,15.80
2019-05-30T05:59:10.338Z,15.80
2019-05-30T06:01:39.495Z,15.80
2019-05-30T06:04:12.973Z,15.90
2019-05-30T06:06:39.437Z,16.00
2019-05-30T06:09:08.678Z,16.00
2019-05-30T06:11:37.556Z,16.10
2019-05-30T06:14:06.572Z,16.20
2019-05-30T06:16:35.749Z,16.30
2019-05-30T06:19:05.020Z,16.30
2019-05-30T06:21:34.489Z,16.30
2019-05-30T06:24:03.361Z,16.30
2019-05-30T06:29:06.757Z,16.30
2019-05-30T06:31:35.556Z,16.30
2019-05-30T06:34:04.540Z,16.30
2019-05-30T06:36:33.712Z,16.30
2019-05-30T06:39:02.611Z,16.30
2019-05-30T06:41:31.421Z,16.30
2019-05-30T06:44:00.259Z,16.30
2019-05-30T06:46:30.460Z,16.30
2019-05-30T06:49:00.128Z,16.40
2019-05-30T06:51:29.176Z,16.50
2019-05-30T06:53:58.098Z,16.50
2019-05-30T06:56:27.496Z,16.60
2019-05-30T06:58:56.521Z,16.60
2019-05-30T07:01:25.830Z,16.80
2019-05-30T07:03:54.832Z,17.00
2019-05-30T07:06:25.397Z,17.00
2019-05-30T07:08:54.727Z,17.00
2019-05-30T07:11:24.665Z,17.00
2019-05-30T07:13:53.755Z,17.00
2019-05-30T07:16:23.365Z,17.20
2019-05-30T07:18:52.369Z,17.30
2019-05-30T07:21:21.311Z,17.20
2019-05-30T07:23:50.515Z,17.40
2019-05-30T07:26:19.344Z,17.30
2019-05-30T07:28:48.148Z,17.20
2019-05-30T07:31:16.953Z,17.20
2019-05-30T07:33:45.780Z,17.30
2019-05-30T07:36:14.678Z,17.30
2019-05-30T07:38:43.751Z,17.20
2019-05-30T07:41:12.743Z,17.30
2019-05-30T07:43:41.564Z,17.30
2019-05-30T07:46:10.880Z,17.20
2019-05-30T07:48:40.977Z,17.30
2019-05-30T07:51:09.935Z,17.40
2019-05-30T07:53:39.183Z,17.70
2019-05-30T07:56:08.273Z,17.80
2019-05-30T07:58:37.413Z,17.90
2019-05-30T08:01:06.445Z,17.80
2019-05-30T08:03:35.242Z,17.70
2019-05-30T08:06:04.452Z,17.60
2019-05-30T08:08:33.946Z,17.60
2019-05-30T08:11:09.436Z,17.60
2019-05-30T08:13:33.824Z,17.60
2019-05-30T08:16:02.638Z,17.60
2019-05-30T08:18:31.682Z,17.60
2019-05-30T08:21:00.572Z,17.60
2019-05-30T08:23:30.140Z,17.70
2019-05-30T08:25:59.078Z,17.90
2019-05-30T08:28:28.811Z,18.00
2019-05-30T08:30:58.087Z,18.10
2019-05-30T08:33:27.624Z,18.10
2019-05-30T08:35:56.435Z,18.20
2019-05-30T08:38:25.248Z,18.40
2019-05-30T08:40:54.080Z,18.50
2019-05-30T08:43:22.864Z,18.70
2019-05-30T08:45:51.753Z,19.00
2019-05-30T08:48:20.644Z,19.20
2019-05-30T08:50:49.515Z,19.30
2019-05-30T08:53:18.493Z,19.40
2019-05-30T08:55:47.863Z,19.30
2019-05-30T08:58:16.698Z,19.30
2019-05-30T09:00:45.976Z,19.20
2019-05-30T09:03:14.875Z,19.30
2019-05-30T09:05:59.330Z,19.50
2019-05-30T09:08:14.436Z,19.50
2019-05-30T09:10:44.425Z,19.50
2019-05-30T09:13:13.342Z,19.70
2019-05-30T09:15:42.998Z,19.80
2019-05-30T09:18:12.063Z,19.50
2019-05-30T09:20:41.948Z,19.70
2019-05-30T09:23:11.338Z,20.00
2019-05-30T09:25:41.432Z,19.80
2019-05-30T09:28:10.427Z,19.90
2019-05-30T09:30:41.146Z,19.90
2019-05-30T09:33:11.130Z,19.90
2019-05-30T09:35:41.347Z,20.00
2019-05-30T09:38:10.391Z,20.00
2019-05-30T09:40:40.858Z,19.70
2019-05-30T09:43:10.506Z,19.60
2019-05-30T09:45:39.595Z,19.60
2019-05-30T09:48:09.641Z,19.70
2019-05-30T09:50:38.478Z,19.80
2019-05-30T09:53:07.513Z,19.80
2019-05-30T09:55:36.391Z,19.70
2019-05-30T09:58:05.479Z,20.00
2019-05-30T10:00:34.550Z,20.00
2019-05-30T10:03:03.528Z,19.70
2019-05-30T10:05:32.481Z,19.50
2019-05-30T10:08:01.288Z,19.50
2019-05-30T10:10:30.306Z,19.50
2019-05-30T10:12:59.366Z,19.50
2019-05-30T10:15:28.359Z,19.40
2019-05-30T10:17:57.301Z,19.30
2019-05-30T10:20:27.764Z,19.40
2019-05-30T10:22:57.361Z,19.30
2019-05-30T10:25:26.641Z,19.30
2019-05-30T10:27:55.471Z,19.20
2019-05-30T10:30:25.095Z,19.30
2019-05-30T10:32:54.132Z,19.40
2019-05-30T10:35:24.280Z,19.50
2019-05-30T10:37:53.091Z,19.50
2019-05-30T10:40:22.136Z,19.60
2019-05-30T10:42:52.760Z,19.70
2019-05-30T10:45:22.811Z,19.90
2019-05-30T10:47:53.512Z,20.20
2019-05-30T10:50:23.123Z,20.50
2019-05-30T10:52:53.463Z,20.70
2019-05-30T10:55:23.164Z,21.00
2019-05-30T10:57:55.352Z,21.20
2019-05-30T11:00:25.856Z,21.10
2019-05-30T11:02:55.027Z,20.60
2019-05-30T11:05:24.271Z,20.60
2019-05-30T11:08:06.454Z,20.60
2019-05-30T11:10:38.122Z,20.60
2019-05-30T11:13:08.852Z,20.20
2019-05-30T11:15:37.936Z,20.10
2019-05-30T11:18:06.928Z,20.20
2019-05-30T11:20:35.897Z,20.20
2019-05-30T11:23:05.754Z,20.40
2019-05-30T11:25:34.711Z,20.20
2019-05-30T11:28:03.806Z,20.30
2019-05-30T11:30:33.144Z,20.30
2019-05-30T11:33:02.451Z,20.30
2019-05-30T11:35:31.888Z,20.50
2019-05-30T11:38:00.819Z,20.60
2019-05-30T11:40:29.787Z,20.60
2019-05-30T11:42:59.929Z,20.60
2019-05-30T11:45:29.300Z,20.80
2019-05-30T11:47:58.226Z,20.70
2019-05-30T11:50:27.860Z,20.40
2019-05-30T11:52:57.951Z,20.60
2019-05-30T11:55:27.161Z,20.70
2019-05-30T11:57:56.278Z,20.40
2019-05-30T12:00:27.001Z,20.20
2019-05-30T12:02:56.486Z,20.20
2019-05-30T12:05:26.461Z,20.10
2019-05-30T12:07:56.845Z,20.10
2019-05-30T12:10:26.766Z,20.10
2019-05-30T12:12:55.559Z,20.00
2019-05-30T12:15:24.510Z,19.90
2019-05-30T12:17:53.421Z,19.80
2019-05-30T12:20:22.664Z,19.80
2019-05-30T12:22:51.840Z,19.90
2019-05-30T12:25:21.548Z,20.00
2019-05-30T12:27:50.349Z,20.00
2019-05-30T12:30:21.136Z,19.80
2019-05-30T12:32:50.284Z,19.70
2019-05-30T12:35:19.725Z,19.80
2019-05-30T12:37:54.789Z,19.80
2019-05-30T12:40:19.839Z,19.60
2019-05-30T12:42:48.752Z,19.70
2019-05-30T12:45:18.313Z,19.80
2019-05-30T12:47:47.406Z,20.00
2019-05-30T12:50:17.171Z,19.90
2019-05-30T12:52:46.011Z,19.80
2019-05-30T12:55:15.166Z,19.90
2019-05-30T12:57:44.055Z,19.90
2019-05-30T13:00:18.303Z,20.00
2019-05-30T13:02:44.652Z,20.00
2019-05-30T13:05:13.900Z,19.90
2019-05-30T13:07:42.794Z,19.90
2019-05-30T13:10:12.184Z,20.00
2019-05-30T13:12:41.025Z,20.00
2019-05-30T13:15:10.508Z,20.20
2019-05-30T13:17:39.391Z,20.10
2019-05-30T13:20:09.382Z,20.10
2019-05-30T13:22:39.047Z,20.10
2019-05-30T13:25:08.449Z,20.00
2019-05-30T13:27:37.405Z,19.90
2019-05-30T13:30:06.940Z,19.60
2019-05-30T13:32:36.250Z,19.30
2019-05-30T13:35:07.508Z,19.30
2019-05-30T13:37:36.696Z,19.10
2019-05-30T13:40:23.618Z,19.10
2019-05-30T13:42:37.663Z,19.00
2019-05-30T13:45:08.195Z,18.90
2019-05-30T13:47:37.986Z,19.10
2019-05-30T13:50:12.706Z,19.20
2019-05-30T13:52:39.565Z,19.10
2019-05-30T13:55:10.271Z,19.10
2019-05-30T13:57:39.293Z,19.10
2019-05-30T14:00:08.839Z,19.10
2019-05-30T14:02:37.711Z,19.40
2019-05-30T14:05:08.294Z,19.40
2019-05-30T14:07:37.263Z,19.40
2019-05-30T14:10:08.663Z,19.40
2019-05-30T14:12:38.161Z,19.40
2019-05-30T14:15:10.496Z,19.50
2019-05-30T14:17:38.644Z,19.30
2019-05-30T14:20:09.520Z,19.20
2019-05-30T14:22:38.463Z,19.20
2019-05-30T14:25:08.020Z,19.30
2019-05-30T14:27:36.977Z,19.30
2019-05-30T14:30:06.671Z,19.30
2019-05-30T14:32:35.714Z,19.30
2019-05-30T14:35:06.427Z,19.30
2019-05-30T14:37:35.534Z,19.40
2019-05-30T14:40:06.413Z,19.30
2019-05-30T14:42:35.641Z,19.40
2019-05-30T14:45:06.401Z,19.50
2019-05-30T14:47:35.744Z,19.50
2019-05-30T14:50:06.599Z,19.80
2019-05-30T14:52:35.728Z,20.20
2019-05-30T14:55:05.287Z,20.40
2019-05-30T14:57:34.192Z,20.40
2019-05-30T15:00:03.128Z,20.50
2019-05-30T15:02:31.948Z,20.70
2019-05-30T15:05:00.825Z,20.70
2019-05-30T15:07:29.645Z,20.60
2019-05-30T15:09:58.444Z,20.80
2019-05-30T15:12:27.400Z,21.10
2019-05-30T15:14:56.613Z,21.00
2019-05-30T15:17:25.461Z,20.80
2019-05-30T15:19:54.255Z,20.80
2019-05-30T15:22:23.092Z,21.00
2019-05-30T15:24:51.912Z,21.40
2019-05-30T15:27:20.979Z,21.30
2019-05-30T15:29:49.907Z,21.30
2019-05-30T15:32:18.773Z,21.30
2019-05-30T15:34:47.948Z,21.80
2019-05-30T15:37:17.069Z,21.80
2019-05-30T15:39:46.160Z,21.70
2019-05-30T15:42:15.435Z,21.40
2019-05-30T15:44:44.724Z,21.30
2019-05-30T15:47:14.480Z,21.50
2019-05-30T15:49:43.587Z,21.30
2019-05-30T15:52:13.331Z,21.40
2019-05-30T15:54:42.359Z,21.40
2019-05-30T15:57:11.206Z,21.20
2019-05-30T15:59:40.048Z,21.20
2019-05-30T16:02:09.902Z,21.20
2019-05-30T16:04:38.764Z,21.10
2019-05-30T16:07:07.662Z,21.00
2019-05-30T16:09:46.678Z,20.90
2019-05-30T16:12:07.134Z,21.00
2019-05-30T16:14:35.947Z,21.00
2019-05-30T16:17:13.851Z,21.00
2019-05-30T16:19:42.883Z,20.90
2019-05-30T16:22:12.276Z,20.80
2019-05-30T16:24:41.376Z,20.70
2019-05-30T16:27:10.415Z,20.80
2019-05-30T16:29:39.243Z,20.60
2019-05-30T16:32:08.128Z,20.50
2019-05-30T16:34:37.300Z,20.60
2019-05-30T16:37:06.845Z,20.70
2019-05-30T16:39:35.650Z,20.60
2019-05-30T16:42:04.921Z,20.60
2019-05-30T16:44:33.727Z,20.70
2019-05-30T16:47:02.551Z,20.60
2019-05-30T16:49:31.347Z,20.70
2019-05-30T16:52:00.339Z,20.80
2019-05-30T16:54:32.750Z,20.70
2019-05-30T16:57:02.234Z,20.70
2019-05-30T16:59:31.061Z,20.70
2019-05-30T17:01:59.981Z,20.80
2019-05-30T17:04:28.835Z,20.90
2019-05-30T17:06:57.854Z,21.10
2019-05-30T17:09:27.681Z,21.00
2019-05-30T17:11:56.791Z,20.90
2019-05-30T17:14:25.954Z,20.90
2019-05-30T17:16:55.146Z,20.90
2019-05-30T17:19:24.531Z,20.90
2019-05-30T17:21:53.631Z,21.00
2019-05-30T17:24:22.994Z,21.00
2019-05-30T17:26:52.178Z,21.30
2019-05-30T17:29:21.544Z,21.20
2019-05-30T17:31:50.703Z,21.60
2019-05-30T17:34:19.914Z,21.70
2019-05-30T17:36:48.841Z,21.70
2019-05-30T17:39:18.903Z,21.70
2019-05-30T17:41:48.086Z,21.50
2019-05-30T17:44:16.973Z,21.50
2019-05-30T17:46:46.396Z,21.90
2019-05-30T17:49:15.284Z,22.30
2019-05-30T17:51:44.533Z,22.20
2019-05-30T17:54:14.087Z,22.20
2019-05-30T17:56:43.000Z,22.20
2019-05-30T17:59:12.084Z,22.40
2019-05-30T18:01:40.971Z,22.00
2019-05-30T18:04:10.007Z,22.20
2019-05-30T18:06:38.838Z,22.10
2019-05-30T18:09:07.898Z,22.30
2019-05-30T18:11:36.847Z,22.70
2019-05-30T18:14:06.167Z,23.90
2019-05-30T18:16:35.072Z,24.50
2019-05-30T18:19:04.435Z,24.40
2019-05-30T18:21:33.316Z,24.50
2019-05-30T18:24:02.752Z,24.40
2019-05-30T18:26:31.959Z,24.60
2019-05-30T18:29:00.988Z,24.90
2019-05-30T18:31:30.175Z,25.20
2019-05-30T18:33:59.538Z,25.80
2019-05-30T18:36:28.672Z,25.80
2019-05-30T18:38:57.669Z,24.50
2019-05-30T18:41:26.643Z,24.10
2019-05-30T18:43:55.736Z,24.10
2019-05-30T18:46:24.967Z,24.20
2019-05-30T18:48:54.317Z,24.10
2019-05-30T18:51:24.054Z,24.00
2019-05-30T18:53:53.332Z,22.70
2019-05-30T18:56:22.451Z,22.10
2019-05-30T18:58:51.281Z,21.60
2019-05-30T19:01:20.195Z,21.30
2019-05-30T19:03:49.092Z,20.90
2019-05-30T19:06:18.210Z,20.60
2019-05-30T19:08:47.463Z,20.30
2019-05-30T19:11:27.110Z,20.20
2019-05-30T19:13:47.513Z,20.10
2019-05-30T19:16:16.312Z,20.10
2019-05-30T19:18:45.324Z,20.00
2019-05-30T19:21:14.484Z,19.80
2019-05-30T19:23:43.656Z,19.80
2019-05-30T19:26:12.919Z,19.70
2019-05-30T19:28:42.085Z,19.60
2019-05-30T19:31:10.899Z,19.50
2019-05-30T19:33:39.759Z,19.40
2019-05-30T19:36:09.124Z,19.40
2019-05-30T19:38:37.952Z,19.40
2019-05-30T19:41:06.865Z,19.30
2019-05-30T19:43:36.029Z,19.30
2019-05-30T19:46:05.617Z,19.30
2019-05-30T19:48:34.808Z,19.30
2019-05-30T19:51:03.691Z,19.30
2019-05-30T19:53:32.942Z,19.30
2019-05-30T19:56:01.862Z,19.20
2019-05-30T19:58:31.558Z,19.20
2019-05-30T20:01:00.500Z,19.10
2019-05-30T20:03:38.598Z,19.00
2019-05-30T20:05:59.955Z,19.00
2019-05-30T20:08:44.874Z,18.80
2019-05-30T20:11:00.371Z,18.70
2019-05-30T20:13:29.200Z,18.70
2019-05-30T20:15:58.366Z,18.60
2019-05-30T20:18:27.206Z,18.50
2019-05-30T20:20:57.928Z,18.50
2019-05-30T20:23:26.616Z,18.50
2019-05-30T20:25:55.527Z,18.40
2019-05-30T20:28:25.157Z,18.40
2019-05-30T20:30:54.575Z,18.30
2019-05-30T20:33:23.938Z,18.20
2019-05-30T20:35:52.824Z,18.20
2019-05-30T20:38:21.818Z,18.20
2019-05-30T20:40:50.646Z,18.20
2019-05-30T20:43:19.516Z,18.10
2019-05-30T20:45:50.042Z,18.10
2019-05-30T20:48:18.974Z,18.00
2019-05-30T20:50:47.868Z,18.00
2019-05-30T20:53:20.172Z,17.90
2019-05-30T20:55:47.558Z,17.80
2019-05-30T20:58:16.450Z,17.80
2019-05-30T21:00:45.843Z,17.70
2019-05-30T21:03:14.760Z,17.60
2019-05-30T21:05:44.224Z,17.60
2019-05-30T21:08:14.521Z,17.50
2019-05-30T21:10:44.851Z,17.40
2019-05-30T21:13:13.816Z,17.40
2019-05-30T21:15:45.728Z,17.30
2019-05-30T21:18:14.935Z,17.30
2019-05-30T21:20:46.181Z,17.20
2019-05-30T21:23:15.455Z,17.20
2019-05-30T21:25:45.193Z,17.20
2019-05-30T21:28:14.150Z,17.20
2019-05-30T21:30:43.332Z,17.10
2019-05-30T21:33:12.614Z,17.00
2019-05-30T21:35:41.918Z,17.00
2019-05-30T21:38:11.047Z,17.00
2019-05-30T21:40:40.424Z,16.90
2019-05-30T21:43:09.319Z,16.90
2019-05-30T21:45:38.528Z,16.90
2019-05-30T21:48:07.922Z,16.90
2019-05-30T21:50:36.768Z,16.80
2019-05-30T21:53:05.574Z,16.80
2019-05-30T21:55:34.440Z,16.70
2019-05-30T21:58:03.359Z,16.60
2019-05-30T22:01:20.561Z,16.60
2019-05-30T22:03:50.893Z,16.60
2019-05-30T22:06:19.931Z,16.60
2019-05-30T22:09:08.652Z,16.50
2019-05-30T22:11:37.604Z,16.50
2019-05-30T22:14:07.204Z,16.50
2019-05-30T22:16:36.211Z,16.50
2019-05-30T22:19:05.861Z,16.50
2019-05-30T22:21:34.851Z,16.40
2019-05-30T22:24:03.832Z,16.40
2019-05-30T22:26:32.637Z,16.40
2019-05-30T22:29:01.437Z,16.30
2019-05-30T22:31:30.370Z,16.30
2019-05-30T22:33:59.419Z,16.30
2019-05-30T22:36:28.338Z,16.20
2019-05-30T22:38:57.217Z,16.20
2019-05-30T22:41:26.091Z,16.10
2019-05-30T22:43:54.944Z,16.10
2019-05-30T22:46:24.737Z,16.10
2019-05-30T22:48:53.603Z,16.10
2019-05-30T22:51:22.510Z,16.10
2019-05-30T22:53:51.583Z,16.10
2019-05-30T22:56:20.459Z,16.00
2019-05-30T22:58:50.159Z,16.00
2019-05-30T23:01:19.157Z,16.00
2019-05-30T23:03:49.070Z,16.00
2019-05-30T23:06:18.181Z,16.00
2019-05-30T23:08:48.426Z,16.00
2019-05-30T23:11:17.454Z,15.90
2019-05-30T23:13:46.371Z,15.90
2019-05-30T23:16:15.242Z,15.80
2019-05-30T23:18:44.255Z,15.80
2019-05-30T23:21:13.076Z,15.80
2019-05-30T23:23:41.932Z,15.80
2019-05-30T23:26:10.808Z,15.80
2019-05-30T23:28:39.615Z,15.70
2019-05-30T23:31:08.604Z,15.70
2019-05-30T23:33:37.423Z,15.60
2019-05-30T23:36:06.267Z,15.60
2019-05-30T23:38:35.451Z,15.50
2019-05-30T23:41:04.273Z,15.50
2019-05-30T23:43:33.496Z,15.40
2019-05-30T23:46:02.572Z,15.40
2019-05-30T23:48:31.423Z,15.40
2019-05-30T23:51:00.233Z,15.30
2019-05-30T23:53:29.028Z,15.30
2019-05-30T23:55:58.415Z,15.30
2019-05-30T23:58:27.402Z,15.30
